QTR551 GMMN-DTTA
Flight info
| Callsign | QTR551 |
|---|---|
| Flight time | 2h 18m |
| Altitude | 39000 |
| Route | SADIC UR975 FES UA411 MORJA UM978 TUC |
| Aircraft | A332/H-SDE3GHIJ2J3J5M1RVWXY/LB2D1 |
Departure
| Time | 2026-05-07 18:04 |
|---|---|
| Airport | Mohammed V International Airport (GMMN) |
Arrival
| Time | 2026-05-07 20:23 |
|---|---|
| Airport | Tunis Carthage International Airport (DTTA) |
| Time | Latitude | Longitude | Altitude | Speed | Heading |
|---|---|---|---|---|---|
| 2026-05-07 17:30 | 33.37106 | -7.58171 | 657 ft | 0 kts | 75° |
| 2026-05-07 17:47 | 33.37104 | -7.58177 | 657 ft | 4 kts | 76° |
| 2026-05-07 17:47 | 33.37101 | -7.58219 | 657 ft | 4 kts | 98° |
| 2026-05-07 17:47 | 33.37108 | -7.58250 | 657 ft | 4 kts | 118° |
| 2026-05-07 17:48 | 33.37111 | -7.58257 | 657 ft | 0 kts | 121° |
| 2026-05-07 17:48 | 33.37109 | -7.58253 | 657 ft | 1 kts | 125° |
| 2026-05-07 17:49 | 33.37101 | -7.58241 | 657 ft | 0 kts | 127° |
| 2026-05-07 17:49 | 33.37097 | -7.58239 | 657 ft | 1 kts | 147° |
| 2026-05-07 17:49 | 33.37092 | -7.58240 | 657 ft | 2 kts | 173° |
| 2026-05-07 17:49 | 33.37087 | -7.58239 | 657 ft | 2 kts | 173° |
| 2026-05-07 17:50 | 33.37104 | -7.58246 | 657 ft | 3 kts | 135° |
| 2026-05-07 17:50 | 33.37115 | -7.58264 | 657 ft | 3 kts | 120° |
| 2026-05-07 17:50 | 33.37127 | -7.58280 | 657 ft | 1 kts | 169° |
| 2026-05-07 17:52 | 33.37126 | -7.58280 | 657 ft | 1 kts | 168° |
| 2026-05-07 17:53 | 33.37109 | -7.58273 | 657 ft | 5 kts | 162° |
| 2026-05-07 17:53 | 33.37064 | -7.58258 | 657 ft | 8 kts | 165° |
| 2026-05-07 17:53 | 33.37007 | -7.58240 | 657 ft | 9 kts | 166° |
| 2026-05-07 17:53 | 33.36935 | -7.58296 | 657 ft | 19 kts | 244° |
| 2026-05-07 17:54 | 33.36855 | -7.58461 | 657 ft | 26 kts | 194° |
| 2026-05-07 17:54 | 33.36659 | -7.58398 | 657 ft | 35 kts | 164° |
| 2026-05-07 17:54 | 33.36396 | -7.58310 | 656 ft | 44 kts | 164° |
| 2026-05-07 17:54 | 33.36232 | -7.58253 | 660 ft | 14 kts | 163° |
| 2026-05-07 17:55 | 33.36096 | -7.58205 | 658 ft | 26 kts | 164° |
| 2026-05-07 17:55 | 33.35884 | -7.58133 | 661 ft | 37 kts | 164° |
| 2026-05-07 17:55 | 33.35726 | -7.58076 | 657 ft | 15 kts | 161° |
| 2026-05-07 17:55 | 33.35633 | -7.58046 | 659 ft | 11 kts | 171° |
| 2026-05-07 17:56 | 33.35560 | -7.58135 | 660 ft | 16 kts | 255° |
| 2026-05-07 17:56 | 33.35554 | -7.58161 | 659 ft | 0 kts | 255° |
| 2026-05-07 18:02 | 33.35524 | -7.58293 | 653 ft | 21 kts | 255° |
| 2026-05-07 18:02 | 33.35572 | -7.58382 | 650 ft | 0 kts | 344° |
| 2026-05-07 18:02 | 33.35573 | -7.58382 | 650 ft | 0 kts | 343° |
| 2026-05-07 18:03 | 33.35587 | -7.58387 | 652 ft | 10 kts | 343° |
| 2026-05-07 18:03 | 33.35874 | -7.58485 | 649 ft | 74 kts | 344° |
| 2026-05-07 18:04 | 33.36538 | -7.58716 | 658 ft | 126 kts | 343° |
| 2026-05-07 18:04 | 33.37510 | -7.59029 | 859 ft | 153 kts | 347° |
| 2026-05-07 18:04 | 33.38538 | -7.59360 | 1613 ft | 151 kts | 346° |
| 2026-05-07 18:04 | 33.39527 | -7.59708 | 2440 ft | 145 kts | 345° |
| 2026-05-07 18:05 | 33.40472 | -7.60086 | 3088 ft | 146 kts | 342° |
| 2026-05-07 18:05 | 33.41480 | -7.60498 | 3537 ft | 159 kts | 343° |
| 2026-05-07 18:05 | 33.42580 | -7.60891 | 4007 ft | 170 kts | 344° |
| 2026-05-07 18:05 | 33.43752 | -7.61262 | 4539 ft | 178 kts | 345° |
| 2026-05-07 18:06 | 33.45032 | -7.61384 | 4922 ft | 196 kts | 7° |
| 2026-05-07 18:06 | 33.46342 | -7.60645 | 5133 ft | 225 kts | 40° |
| 2026-05-07 18:06 | 33.47415 | -7.59153 | 5394 ft | 249 kts | 57° |
| 2026-05-07 18:06 | 33.48230 | -7.57210 | 5714 ft | 272 kts | 69° |
| 2026-05-07 18:07 | 33.48885 | -7.55033 | 6478 ft | 280 kts | 75° |
| 2026-05-07 18:07 | 33.49428 | -7.52768 | 7309 ft | 286 kts | 77° |
| 2026-05-07 18:07 | 33.49915 | -7.50429 | 8142 ft | 293 kts | 79° |
| 2026-05-07 18:07 | 33.50384 | -7.48028 | 8989 ft | 300 kts | 79° |
| 2026-05-07 18:08 | 33.50859 | -7.45567 | 9816 ft | 307 kts | 80° |
| 2026-05-07 18:08 | 33.51356 | -7.43021 | 10384 ft | 323 kts | 79° |
| 2026-05-07 18:08 | 33.51891 | -7.40316 | 10732 ft | 344 kts | 79° |
| 2026-05-07 18:08 | 33.52465 | -7.37467 | 11269 ft | 357 kts | 79° |
| 2026-05-07 18:09 | 33.53062 | -7.34549 | 11968 ft | 364 kts | 79° |
| 2026-05-07 18:09 | 33.53675 | -7.31575 | 12718 ft | 370 kts | 79° |
| 2026-05-07 18:09 | 33.54298 | -7.28557 | 13482 ft | 375 kts | 79° |
| 2026-05-07 18:09 | 33.54919 | -7.25544 | 14153 ft | 380 kts | 79° |
| 2026-05-07 18:10 | 33.55553 | -7.22454 | 14674 ft | 383 kts | 79° |
| 2026-05-07 18:10 | 33.56190 | -7.19344 | 14896 ft | 386 kts | 79° |
| 2026-05-07 18:10 | 33.56830 | -7.16209 | 14938 ft | 388 kts | 79° |
| 2026-05-07 18:10 | 33.57471 | -7.13061 | 14938 ft | 389 kts | 79° |
| 2026-05-07 18:11 | 33.58113 | -7.09912 | 14940 ft | 389 kts | 79° |
| 2026-05-07 18:11 | 33.58546 | -7.07778 | 14939 ft | 389 kts | 79° |
| 2026-05-07 18:11 | 33.59392 | -7.03603 | 14938 ft | 389 kts | 79° |
| 2026-05-07 18:11 | 33.60031 | -7.00445 | 14938 ft | 389 kts | 79° |
| 2026-05-07 18:12 | 33.60668 | -6.97290 | 14937 ft | 389 kts | 79° |
| 2026-05-07 18:12 | 33.61304 | -6.94134 | 14931 ft | 389 kts | 79° |
| 2026-05-07 18:12 | 33.61940 | -6.90977 | 14933 ft | 389 kts | 79° |
| 2026-05-07 18:12 | 33.62575 | -6.87818 | 14933 ft | 389 kts | 79° |
| 2026-05-07 18:13 | 33.63209 | -6.84658 | 14933 ft | 389 kts | 79° |
| 2026-05-07 18:13 | 33.63843 | -6.81500 | 14925 ft | 390 kts | 79° |
| 2026-05-07 18:13 | 33.64476 | -6.78334 | 14931 ft | 390 kts | 79° |
| 2026-05-07 18:13 | 33.65111 | -6.75161 | 15194 ft | 393 kts | 79° |
| 2026-05-07 18:14 | 33.65752 | -6.71944 | 15835 ft | 398 kts | 78° |
| 2026-05-07 18:14 | 33.66398 | -6.68702 | 16475 ft | 403 kts | 78° |
| 2026-05-07 18:14 | 33.67051 | -6.65417 | 17151 ft | 407 kts | 78° |
| 2026-05-07 18:14 | 33.67711 | -6.62096 | 17779 ft | 412 kts | 78° |
| 2026-05-07 18:15 | 33.68379 | -6.58732 | 18359 ft | 417 kts | 78° |
| 2026-05-07 18:15 | 33.69054 | -6.55326 | 18858 ft | 422 kts | 78° |
| 2026-05-07 18:15 | 33.69734 | -6.51884 | 19371 ft | 426 kts | 78° |
| 2026-05-07 18:15 | 33.70421 | -6.48398 | 19874 ft | 431 kts | 78° |
| 2026-05-07 18:16 | 33.71113 | -6.44886 | 20382 ft | 435 kts | 78° |
| 2026-05-07 18:16 | 33.71815 | -6.41332 | 20890 ft | 439 kts | 78° |
| 2026-05-07 18:16 | 33.72512 | -6.37797 | 21402 ft | 443 kts | 78° |
| 2026-05-07 18:16 | 33.73223 | -6.34177 | 21876 ft | 448 kts | 78° |
| 2026-05-07 18:17 | 33.73879 | -6.30500 | 22363 ft | 451 kts | 81° |
| 2026-05-07 18:17 | 33.74468 | -6.26779 | 22845 ft | 455 kts | 81° |
| 2026-05-07 18:17 | 33.75026 | -6.23019 | 23312 ft | 459 kts | 82° |
| 2026-05-07 18:17 | 33.75578 | -6.19217 | 23728 ft | 464 kts | 82° |
| 2026-05-07 18:18 | 33.76135 | -6.15387 | 24164 ft | 466 kts | 82° |
| 2026-05-07 18:18 | 33.76698 | -6.11548 | 24599 ft | 468 kts | 82° |
| 2026-05-07 18:18 | 33.77270 | -6.07684 | 25009 ft | 471 kts | 81° |
| 2026-05-07 18:18 | 33.77850 | -6.03799 | 25437 ft | 473 kts | 81° |
| 2026-05-07 18:19 | 33.78433 | -5.99897 | 25838 ft | 476 kts | 81° |
| 2026-05-07 18:19 | 33.79018 | -5.95976 | 26247 ft | 477 kts | 81° |
| 2026-05-07 18:19 | 33.79606 | -5.92039 | 26643 ft | 480 kts | 81° |
| 2026-05-07 18:19 | 33.80196 | -5.88081 | 27030 ft | 482 kts | 81° |
| 2026-05-07 18:20 | 33.80787 | -5.84098 | 27432 ft | 485 kts | 81° |
| 2026-05-07 18:20 | 33.81380 | -5.80099 | 27827 ft | 487 kts | 81° |
| 2026-05-07 18:20 | 33.81975 | -5.76075 | 28243 ft | 490 kts | 81° |
| 2026-05-07 18:20 | 33.82571 | -5.72032 | 28596 ft | 493 kts | 81° |
| 2026-05-07 18:21 | 33.83168 | -5.67963 | 28962 ft | 495 kts | 81° |
| 2026-05-07 18:21 | 33.83760 | -5.63930 | 29322 ft | 497 kts | 81° |
| 2026-05-07 18:21 | 33.84360 | -5.59820 | 29718 ft | 500 kts | 81° |
| 2026-05-07 18:21 | 33.84961 | -5.55696 | 30057 ft | 502 kts | 80° |
| 2026-05-07 18:22 | 33.85564 | -5.51549 | 30351 ft | 505 kts | 80° |
| 2026-05-07 18:22 | 33.85971 | -5.48739 | 30551 ft | 506 kts | 80° |
| 2026-05-07 18:22 | 33.86773 | -5.43196 | 30936 ft | 509 kts | 80° |
| 2026-05-07 18:22 | 33.87380 | -5.38990 | 31219 ft | 511 kts | 80° |
| 2026-05-07 18:23 | 33.87988 | -5.34767 | 31499 ft | 514 kts | 80° |
| 2026-05-07 18:23 | 33.88599 | -5.30516 | 31777 ft | 516 kts | 80° |
| 2026-05-07 18:23 | 33.89210 | -5.26246 | 32047 ft | 518 kts | 79° |
| 2026-05-07 18:23 | 33.89822 | -5.21968 | 32357 ft | 519 kts | 79° |
| 2026-05-07 18:24 | 33.90432 | -5.17690 | 32748 ft | 518 kts | 79° |
| 2026-05-07 18:24 | 33.91039 | -5.13416 | 33154 ft | 517 kts | 79° |
| 2026-05-07 18:24 | 33.91643 | -5.09155 | 33533 ft | 516 kts | 79° |
| 2026-05-07 18:24 | 33.92247 | -5.04890 | 33895 ft | 516 kts | 79° |
| 2026-05-07 18:25 | 33.92937 | -5.00660 | 34208 ft | 515 kts | 74° |
| 2026-05-07 18:25 | 33.93929 | -4.96529 | 34524 ft | 513 kts | 70° |
| 2026-05-07 18:25 | 33.95094 | -4.92479 | 34870 ft | 510 kts | 68° |
| 2026-05-07 18:25 | 33.96306 | -4.88547 | 35258 ft | 507 kts | 67° |
| 2026-05-07 18:26 | 33.97549 | -4.84571 | 35580 ft | 506 kts | 67° |
| 2026-05-07 18:26 | 33.98776 | -4.80602 | 35878 ft | 506 kts | 68° |
| 2026-05-07 18:26 | 33.99984 | -4.76621 | 36151 ft | 506 kts | 68° |
| 2026-05-07 18:26 | 34.01171 | -4.72637 | 36444 ft | 505 kts | 68° |
| 2026-05-07 18:27 | 34.02342 | -4.68653 | 36732 ft | 504 kts | 69° |
| 2026-05-07 18:27 | 34.03505 | -4.64663 | 37004 ft | 504 kts | 69° |
| 2026-05-07 18:27 | 34.04662 | -4.60678 | 37290 ft | 503 kts | 69° |
| 2026-05-07 18:27 | 34.05441 | -4.57988 | 37489 ft | 503 kts | 69° |
| 2026-05-07 18:28 | 34.06958 | -4.52737 | 37961 ft | 499 kts | 70° |
| 2026-05-07 18:28 | 34.08090 | -4.48785 | 38260 ft | 498 kts | 70° |
| 2026-05-07 18:28 | 34.09216 | -4.44838 | 38535 ft | 497 kts | 70° |
| 2026-05-07 18:28 | 34.10337 | -4.40898 | 38760 ft | 497 kts | 70° |
| 2026-05-07 18:29 | 34.11458 | -4.36952 | 38896 ft | 498 kts | 70° |
| 2026-05-07 18:29 | 34.13706 | -4.29029 | 38936 ft | 499 kts | 70° |
| 2026-05-07 18:30 | 34.15951 | -4.21094 | 38935 ft | 500 kts | 70° |
| 2026-05-07 18:30 | 34.18199 | -4.13146 | 38934 ft | 500 kts | 70° |
| 2026-05-07 18:31 | 34.20441 | -4.05188 | 38925 ft | 500 kts | 70° |
| 2026-05-07 18:31 | 34.22677 | -3.97221 | 38920 ft | 500 kts | 70° |
| 2026-05-07 18:32 | 34.24906 | -3.89259 | 38917 ft | 500 kts | 70° |
| 2026-05-07 18:32 | 34.27131 | -3.81292 | 38919 ft | 500 kts | 70° |
| 2026-05-07 18:33 | 34.29353 | -3.73310 | 38913 ft | 502 kts | 70° |
| 2026-05-07 18:33 | 34.31576 | -3.65300 | 38900 ft | 502 kts | 70° |
| 2026-05-07 18:34 | 34.33796 | -3.57281 | 38909 ft | 503 kts | 70° |
| 2026-05-07 18:34 | 34.35997 | -3.49306 | 38902 ft | 502 kts | 70° |
| 2026-05-07 18:35 | 34.38205 | -3.41286 | 38898 ft | 502 kts | 71° |
| 2026-05-07 18:35 | 34.40402 | -3.33277 | 38901 ft | 501 kts | 71° |
| 2026-05-07 18:36 | 34.42591 | -3.25277 | 38895 ft | 500 kts | 71° |
| 2026-05-07 18:36 | 34.44776 | -3.17272 | 38914 ft | 500 kts | 70° |
| 2026-05-07 18:37 | 34.46952 | -3.09273 | 38905 ft | 500 kts | 71° |
| 2026-05-07 18:37 | 34.49123 | -3.01269 | 38913 ft | 501 kts | 71° |
| 2026-05-07 18:38 | 34.51300 | -2.93223 | 38910 ft | 503 kts | 71° |
| 2026-05-07 18:38 | 34.53474 | -2.85159 | 38906 ft | 503 kts | 71° |
| 2026-05-07 18:39 | 34.55643 | -2.77096 | 38908 ft | 503 kts | 71° |
| 2026-05-07 18:39 | 34.57440 | -2.70394 | 38914 ft | 503 kts | 71° |
| 2026-05-07 18:40 | 34.59951 | -2.61005 | 38911 ft | 504 kts | 71° |
| 2026-05-07 18:40 | 34.62112 | -2.52896 | 38920 ft | 505 kts | 71° |
| 2026-05-07 18:41 | 34.63921 | -2.46091 | 38920 ft | 505 kts | 71° |
| 2026-05-07 18:41 | 34.66073 | -2.37971 | 38925 ft | 505 kts | 71° |
| 2026-05-07 18:42 | 34.68205 | -2.29903 | 38927 ft | 505 kts | 71° |
| 2026-05-07 18:42 | 34.70349 | -2.21767 | 38946 ft | 506 kts | 72° |
| 2026-05-07 18:43 | 34.72487 | -2.13625 | 38970 ft | 506 kts | 71° |
| 2026-05-07 18:43 | 34.74621 | -2.05476 | 38963 ft | 506 kts | 71° |
| 2026-05-07 18:44 | 34.76754 | -1.97306 | 38966 ft | 506 kts | 71° |
| 2026-05-07 18:44 | 34.78100 | -1.93377 | 38965 ft | 502 kts | 57° |
| 2026-05-07 18:44 | 34.80070 | -1.89895 | 38961 ft | 498 kts | 48° |
| 2026-05-07 18:45 | 34.84644 | -1.83590 | 38953 ft | 497 kts | 44° |
| 2026-05-07 18:45 | 34.89232 | -1.77255 | 38950 ft | 499 kts | 46° |
| 2026-05-07 18:46 | 34.93643 | -1.70705 | 38946 ft | 500 kts | 48° |
| 2026-05-07 18:46 | 34.97970 | -1.64063 | 38943 ft | 500 kts | 48° |
| 2026-05-07 18:47 | 35.02283 | -1.57401 | 38941 ft | 500 kts | 48° |
| 2026-05-07 18:47 | 35.06566 | -1.50795 | 38938 ft | 500 kts | 48° |
| 2026-05-07 18:48 | 35.10891 | -1.44125 | 38941 ft | 502 kts | 48° |
| 2026-05-07 18:48 | 35.15222 | -1.37437 | 38940 ft | 502 kts | 48° |
| 2026-05-07 18:49 | 35.19547 | -1.30744 | 38957 ft | 502 kts | 48° |
| 2026-05-07 18:49 | 35.23869 | -1.24041 | 38956 ft | 502 kts | 48° |
| 2026-05-07 18:50 | 35.28184 | -1.17337 | 38949 ft | 501 kts | 48° |
| 2026-05-07 18:50 | 35.32497 | -1.10624 | 38956 ft | 503 kts | 48° |
| 2026-05-07 18:51 | 35.36825 | -1.03876 | 38950 ft | 505 kts | 48° |
| 2026-05-07 18:51 | 35.41130 | -0.97149 | 38951 ft | 505 kts | 48° |
| 2026-05-07 18:52 | 35.45459 | -0.90369 | 38940 ft | 505 kts | 48° |
| 2026-05-07 18:52 | 35.49785 | -0.83583 | 38929 ft | 505 kts | 48° |
| 2026-05-07 18:53 | 35.54109 | -0.76786 | 38919 ft | 505 kts | 48° |
| 2026-05-07 18:53 | 35.58426 | -0.69990 | 38911 ft | 507 kts | 48° |
| 2026-05-07 18:54 | 35.62473 | -0.62858 | 38911 ft | 512 kts | 59° |
| 2026-05-07 18:54 | 35.65480 | -0.54902 | 38912 ft | 514 kts | 65° |
| 2026-05-07 18:55 | 35.68232 | -0.46779 | 38917 ft | 514 kts | 65° |
| 2026-05-07 18:55 | 35.71052 | -0.38691 | 38925 ft | 514 kts | 64° |
| 2026-05-07 18:56 | 35.73942 | -0.30644 | 38940 ft | 514 kts | 64° |
| 2026-05-07 18:56 | 35.76854 | -0.22605 | 38942 ft | 514 kts | 64° |
| 2026-05-07 18:57 | 35.79742 | -0.14615 | 38943 ft | 514 kts | 64° |
| 2026-05-07 18:57 | 35.82640 | -0.06566 | 38941 ft | 514 kts | 64° |
| 2026-05-07 18:58 | 35.85533 | 0.01496 | 38930 ft | 514 kts | 64° |
| 2026-05-07 18:58 | 35.88425 | 0.09576 | 38935 ft | 516 kts | 64° |
| 2026-05-07 18:59 | 35.91303 | 0.17686 | 38938 ft | 516 kts | 64° |
| 2026-05-07 18:59 | 35.94143 | 0.25826 | 38938 ft | 516 kts | 65° |
| 2026-05-07 19:00 | 35.96970 | 0.33970 | 38939 ft | 516 kts | 65° |
| 2026-05-07 19:00 | 35.99794 | 0.42116 | 38943 ft | 517 kts | 65° |
| 2026-05-07 19:01 | 36.02605 | 0.50236 | 38943 ft | 518 kts | 65° |
| 2026-05-07 19:01 | 36.05448 | 0.58472 | 38939 ft | 517 kts | 65° |
| 2026-05-07 19:02 | 36.08246 | 0.66598 | 38937 ft | 517 kts | 65° |
| 2026-05-07 19:02 | 36.11056 | 0.74780 | 38941 ft | 517 kts | 65° |
| 2026-05-07 19:03 | 36.13861 | 0.82969 | 38938 ft | 517 kts | 65° |
| 2026-05-07 19:03 | 36.16661 | 0.91164 | 38943 ft | 517 kts | 65° |
| 2026-05-07 19:04 | 36.19450 | 0.99355 | 38941 ft | 517 kts | 65° |
| 2026-05-07 19:04 | 36.22237 | 1.07557 | 38939 ft | 517 kts | 65° |
| 2026-05-07 19:05 | 36.25017 | 1.15763 | 38957 ft | 517 kts | 65° |
| 2026-05-07 19:05 | 36.27794 | 1.23982 | 38940 ft | 517 kts | 65° |
| 2026-05-07 19:06 | 36.30567 | 1.32211 | 38936 ft | 517 kts | 65° |
| 2026-05-07 19:06 | 36.34718 | 1.44571 | 38941 ft | 517 kts | 65° |
| 2026-05-07 19:07 | 36.37489 | 1.52810 | 38937 ft | 517 kts | 65° |
| 2026-05-07 19:07 | 36.40307 | 1.61023 | 38937 ft | 516 kts | 64° |
| 2026-05-07 19:08 | 36.43108 | 1.69158 | 38938 ft | 516 kts | 64° |
| 2026-05-07 19:08 | 36.45916 | 1.77354 | 38936 ft | 516 kts | 64° |
| 2026-05-07 19:09 | 36.48720 | 1.85571 | 38962 ft | 516 kts | 64° |
| 2026-05-07 19:09 | 36.51514 | 1.93791 | 38940 ft | 517 kts | 64° |
| 2026-05-07 19:10 | 36.54305 | 2.02024 | 38932 ft | 516 kts | 65° |
| 2026-05-07 19:10 | 36.57085 | 2.10245 | 38931 ft | 516 kts | 64° |
| 2026-05-07 19:11 | 36.59848 | 2.18490 | 38929 ft | 517 kts | 68° |
| 2026-05-07 19:11 | 36.61297 | 2.27208 | 38930 ft | 519 kts | 83° |
| 2026-05-07 19:12 | 36.61927 | 2.36152 | 38925 ft | 518 kts | 85° |
| 2026-05-07 19:12 | 36.62542 | 2.45088 | 38930 ft | 518 kts | 84° |
| 2026-05-07 19:13 | 36.63271 | 2.53995 | 38925 ft | 517 kts | 84° |
| 2026-05-07 19:13 | 36.64059 | 2.62904 | 38930 ft | 518 kts | 83° |
| 2026-05-07 19:14 | 36.64851 | 2.71809 | 38930 ft | 517 kts | 84° |
| 2026-05-07 19:14 | 36.65632 | 2.80708 | 38931 ft | 517 kts | 84° |
| 2026-05-07 19:15 | 36.66401 | 2.89605 | 38934 ft | 516 kts | 84° |
| 2026-05-07 19:15 | 36.67162 | 2.98502 | 38936 ft | 517 kts | 84° |
| 2026-05-07 19:16 | 36.67918 | 3.07398 | 38936 ft | 516 kts | 85° |
| 2026-05-07 19:16 | 36.68664 | 3.16264 | 38938 ft | 513 kts | 85° |
| 2026-05-07 19:17 | 36.68971 | 3.25091 | 38939 ft | 508 kts | 97° |
| 2026-05-07 19:17 | 36.68110 | 3.33803 | 38939 ft | 506 kts | 102° |
| 2026-05-07 19:18 | 36.67020 | 3.42412 | 38936 ft | 507 kts | 102° |
| 2026-05-07 19:18 | 36.65998 | 3.51100 | 38935 ft | 507 kts | 101° |
| 2026-05-07 19:19 | 36.65149 | 3.59828 | 38928 ft | 509 kts | 95° |
| 2026-05-07 19:19 | 36.65317 | 3.68661 | 38927 ft | 511 kts | 87° |
| 2026-05-07 19:20 | 36.65887 | 3.77492 | 38928 ft | 512 kts | 86° |
| 2026-05-07 19:20 | 36.66424 | 3.86334 | 38924 ft | 511 kts | 89° |
| 2026-05-07 19:21 | 36.66870 | 3.95167 | 38928 ft | 511 kts | 89° |
| 2026-05-07 19:21 | 36.67276 | 4.04009 | 38941 ft | 511 kts | 89° |
| 2026-05-07 19:22 | 36.67669 | 4.12844 | 38954 ft | 511 kts | 90° |
| 2026-05-07 19:22 | 36.68059 | 4.21680 | 38921 ft | 511 kts | 90° |
| 2026-05-07 19:23 | 36.68447 | 4.30524 | 38932 ft | 511 kts | 90° |
| 2026-05-07 19:23 | 36.68826 | 4.39319 | 38934 ft | 512 kts | 90° |
| 2026-05-07 19:24 | 36.69201 | 4.48177 | 38934 ft | 512 kts | 90° |
| 2026-05-07 19:24 | 36.69570 | 4.57045 | 38935 ft | 512 kts | 90° |
| 2026-05-07 19:25 | 36.69931 | 4.65906 | 38926 ft | 513 kts | 92° |
| 2026-05-07 19:25 | 36.70289 | 4.74800 | 38937 ft | 514 kts | 91° |
| 2026-05-07 19:26 | 36.70637 | 4.83692 | 38936 ft | 514 kts | 91° |
| 2026-05-07 19:26 | 36.70975 | 4.92578 | 38942 ft | 514 kts | 92° |
| 2026-05-07 19:27 | 36.71311 | 5.01416 | 38939 ft | 515 kts | 92° |
| 2026-05-07 19:27 | 36.71734 | 5.10350 | 38938 ft | 519 kts | 89° |
| 2026-05-07 19:28 | 36.72634 | 5.19298 | 38939 ft | 521 kts | 86° |
| 2026-05-07 19:28 | 36.73660 | 5.28229 | 38932 ft | 521 kts | 86° |
| 2026-05-07 19:29 | 36.74642 | 5.37169 | 38921 ft | 522 kts | 87° |
| 2026-05-07 19:29 | 36.75583 | 5.46179 | 38921 ft | 525 kts | 87° |
| 2026-05-07 19:30 | 36.76509 | 5.55224 | 38909 ft | 526 kts | 87° |
| 2026-05-07 19:30 | 36.77428 | 5.64275 | 38907 ft | 526 kts | 87° |
| 2026-05-07 19:31 | 36.78343 | 5.73336 | 38907 ft | 526 kts | 87° |
| 2026-05-07 19:31 | 36.79245 | 5.82349 | 38914 ft | 528 kts | 88° |
| 2026-05-07 19:32 | 36.79964 | 5.91451 | 38909 ft | 525 kts | 92° |
| 2026-05-07 19:32 | 36.80213 | 6.00540 | 38910 ft | 524 kts | 94° |
| 2026-05-07 19:33 | 36.80369 | 6.09621 | 38881 ft | 524 kts | 94° |
| 2026-05-07 19:33 | 36.80545 | 6.18733 | 38892 ft | 526 kts | 94° |
| 2026-05-07 19:34 | 36.80744 | 6.27882 | 38898 ft | 528 kts | 94° |
| 2026-05-07 19:34 | 36.80909 | 6.35492 | 38898 ft | 528 kts | 94° |
| 2026-05-07 19:35 | 36.81103 | 6.44653 | 38900 ft | 528 kts | 94° |
| 2026-05-07 19:35 | 36.81296 | 6.53815 | 38921 ft | 529 kts | 94° |
| 2026-05-07 19:36 | 36.81488 | 6.62984 | 38905 ft | 528 kts | 94° |
| 2026-05-07 19:36 | 36.81671 | 6.72143 | 38896 ft | 528 kts | 94° |
| 2026-05-07 19:37 | 36.81843 | 6.81300 | 38901 ft | 528 kts | 94° |
| 2026-05-07 19:37 | 36.82005 | 6.90453 | 38897 ft | 528 kts | 94° |
| 2026-05-07 19:38 | 36.82162 | 6.99621 | 38892 ft | 528 kts | 94° |
| 2026-05-07 19:38 | 36.82311 | 7.08788 | 38890 ft | 528 kts | 94° |
| 2026-05-07 19:39 | 36.82451 | 7.17951 | 38893 ft | 529 kts | 94° |
| 2026-05-07 19:39 | 36.82587 | 7.27127 | 38894 ft | 529 kts | 94° |
| 2026-05-07 19:40 | 36.82716 | 7.36242 | 38889 ft | 529 kts | 94° |
| 2026-05-07 19:40 | 36.82839 | 7.45413 | 38890 ft | 528 kts | 94° |
| 2026-05-07 19:41 | 36.82953 | 7.54584 | 38887 ft | 528 kts | 95° |
| 2026-05-07 19:41 | 36.83061 | 7.63756 | 38881 ft | 529 kts | 94° |
| 2026-05-07 19:42 | 36.83161 | 7.72936 | 38884 ft | 529 kts | 94° |
| 2026-05-07 19:42 | 36.83254 | 7.82125 | 38885 ft | 529 kts | 95° |
| 2026-05-07 19:43 | 36.83312 | 7.91301 | 38882 ft | 529 kts | 95° |
| 2026-05-07 19:43 | 36.83350 | 8.00481 | 38872 ft | 529 kts | 95° |
| 2026-05-07 19:44 | 36.83382 | 8.09653 | 38885 ft | 528 kts | 95° |
| 2026-05-07 19:44 | 36.83410 | 8.18823 | 38877 ft | 528 kts | 95° |
| 2026-05-07 19:45 | 36.83431 | 8.27988 | 38874 ft | 528 kts | 95° |
| 2026-05-07 19:45 | 36.83448 | 8.37155 | 38867 ft | 528 kts | 95° |
| 2026-05-07 19:46 | 36.83454 | 8.46326 | 38876 ft | 529 kts | 95° |
| 2026-05-07 19:46 | 36.83453 | 8.55506 | 38886 ft | 529 kts | 95° |
| 2026-05-07 19:47 | 36.83450 | 8.64628 | 38888 ft | 529 kts | 95° |
| 2026-05-07 19:47 | 36.83491 | 8.73820 | 38887 ft | 529 kts | 95° |
| 2026-05-07 19:48 | 36.83556 | 8.82995 | 38901 ft | 528 kts | 95° |
| 2026-05-07 19:48 | 36.83612 | 8.92156 | 38904 ft | 528 kts | 95° |
| 2026-05-07 19:49 | 36.83655 | 9.01310 | 38897 ft | 527 kts | 95° |
| 2026-05-07 19:49 | 36.83689 | 9.10461 | 38880 ft | 527 kts | 95° |
| 2026-05-07 19:50 | 36.83718 | 9.19590 | 38520 ft | 524 kts | 95° |
| 2026-05-07 19:50 | 36.83730 | 9.24115 | 38120 ft | 519 kts | 95° |
| 2026-05-07 19:50 | 36.83742 | 9.28589 | 37345 ft | 512 kts | 95° |
| 2026-05-07 19:51 | 36.83750 | 9.33021 | 36338 ft | 510 kts | 96° |
| 2026-05-07 19:51 | 36.83754 | 9.37446 | 35354 ft | 509 kts | 95° |
| 2026-05-07 19:51 | 36.83759 | 9.41853 | 34415 ft | 507 kts | 95° |
| 2026-05-07 19:51 | 36.83804 | 9.46248 | 33401 ft | 505 kts | 94° |
| 2026-05-07 19:52 | 36.83850 | 9.48940 | 32745 ft | 504 kts | 94° |
| 2026-05-07 20:02 | 36.83889 | 9.50891 | 32297 ft | 502 kts | 93° |
| 2026-05-07 20:02 | 36.83982 | 9.55231 | 31304 ft | 498 kts | 92° |
| 2026-05-07 20:03 | 36.84078 | 9.59535 | 30338 ft | 493 kts | 91° |
| 2026-05-07 20:03 | 36.84164 | 9.63789 | 29314 ft | 487 kts | 93° |
| 2026-05-07 20:03 | 36.83944 | 9.67957 | 28239 ft | 476 kts | 103° |
| 2026-05-07 20:03 | 36.83242 | 9.71938 | 27209 ft | 464 kts | 110° |
| 2026-05-07 20:04 | 36.82333 | 9.75766 | 26212 ft | 456 kts | 112° |
| 2026-05-07 20:04 | 36.81389 | 9.79510 | 25238 ft | 449 kts | 113° |
| 2026-05-07 20:04 | 36.80448 | 9.83186 | 24315 ft | 441 kts | 113° |
| 2026-05-07 20:04 | 36.79518 | 9.86805 | 23372 ft | 434 kts | 113° |
| 2026-05-07 20:05 | 36.78603 | 9.90359 | 22316 ft | 427 kts | 113° |
| 2026-05-07 20:05 | 36.77735 | 9.93877 | 21298 ft | 422 kts | 111° |
| 2026-05-07 20:05 | 36.77029 | 9.97413 | 20307 ft | 418 kts | 108° |
| 2026-05-07 20:05 | 36.76419 | 10.00937 | 19356 ft | 413 kts | 107° |
| 2026-05-07 20:06 | 36.75826 | 10.04425 | 18427 ft | 408 kts | 107° |
| 2026-05-07 20:06 | 36.75242 | 10.07869 | 17407 ft | 403 kts | 107° |
| 2026-05-07 20:06 | 36.74656 | 10.11263 | 16391 ft | 397 kts | 107° |
| 2026-05-07 20:06 | 36.74065 | 10.14601 | 15409 ft | 391 kts | 107° |
| 2026-05-07 20:07 | 36.73469 | 10.17886 | 14460 ft | 385 kts | 107° |
| 2026-05-07 20:07 | 36.72869 | 10.21120 | 13498 ft | 380 kts | 107° |
| 2026-05-07 20:07 | 36.72259 | 10.24264 | 12483 ft | 376 kts | 107° |
| 2026-05-07 20:07 | 36.71633 | 10.27447 | 11623 ft | 370 kts | 107° |
| 2026-05-07 20:08 | 36.71034 | 10.30468 | 11016 ft | 357 kts | 107° |
| 2026-05-07 20:08 | 36.70439 | 10.33398 | 10585 ft | 340 kts | 107° |
| 2026-05-07 20:08 | 36.69905 | 10.36157 | 10215 ft | 314 kts | 107° |
| 2026-05-07 20:08 | 36.69424 | 10.38720 | 9905 ft | 296 kts | 107° |
| 2026-05-07 20:09 | 36.68960 | 10.41167 | 9479 ft | 284 kts | 108° |
| 2026-05-07 20:09 | 36.68483 | 10.43501 | 9103 ft | 273 kts | 108° |
| 2026-05-07 20:09 | 36.68010 | 10.45746 | 8736 ft | 263 kts | 109° |
| 2026-05-07 20:10 | 36.67056 | 10.49984 | 8072 ft | 246 kts | 108° |
| 2026-05-07 20:10 | 36.66703 | 10.52049 | 7687 ft | 244 kts | 104° |
| 2026-05-07 20:10 | 36.66395 | 10.54120 | 7288 ft | 241 kts | 103° |
| 2026-05-07 20:10 | 36.66084 | 10.56149 | 6935 ft | 235 kts | 105° |
| 2026-05-07 20:11 | 36.65738 | 10.58078 | 6783 ft | 220 kts | 106° |
| 2026-05-07 20:11 | 36.65396 | 10.59935 | 6401 ft | 226 kts | 106° |
| 2026-05-07 20:11 | 36.65023 | 10.61883 | 5955 ft | 238 kts | 106° |
| 2026-05-07 20:11 | 36.64573 | 10.64124 | 5988 ft | 292 kts | 106° |
| 2026-05-07 20:12 | 36.64053 | 10.66667 | 6294 ft | 307 kts | 106° |
| 2026-05-07 20:12 | 36.63532 | 10.69233 | 5926 ft | 306 kts | 106° |
| 2026-05-07 20:12 | 36.63150 | 10.71786 | 5635 ft | 296 kts | 92° |
| 2026-05-07 20:12 | 36.63551 | 10.74238 | 5326 ft | 288 kts | 65° |
| 2026-05-07 20:13 | 36.64739 | 10.76188 | 4946 ft | 283 kts | 38° |
| 2026-05-07 20:13 | 36.66471 | 10.77259 | 4525 ft | 278 kts | 11° |
| 2026-05-07 20:13 | 36.68344 | 10.77243 | 4107 ft | 273 kts | 344° |
| 2026-05-07 20:13 | 36.69991 | 10.76165 | 3921 ft | 268 kts | 319° |
| 2026-05-07 20:14 | 36.71312 | 10.74532 | 3901 ft | 268 kts | 304° |
| 2026-05-07 20:14 | 36.72070 | 10.72491 | 3857 ft | 252 kts | 286° |
| 2026-05-07 20:14 | 36.72532 | 10.70472 | 3724 ft | 233 kts | 283° |
| 2026-05-07 20:14 | 36.72937 | 10.68579 | 3511 ft | 220 kts | 283° |
| 2026-05-07 20:15 | 36.73319 | 10.66755 | 3190 ft | 215 kts | 283° |
| 2026-05-07 20:15 | 36.73679 | 10.64968 | 2931 ft | 209 kts | 283° |
| 2026-05-07 20:15 | 36.74025 | 10.63234 | 2908 ft | 206 kts | 283° |
| 2026-05-07 20:15 | 36.74369 | 10.61506 | 2906 ft | 205 kts | 283° |
| 2026-05-07 20:16 | 36.74716 | 10.59781 | 2904 ft | 205 kts | 283° |
| 2026-05-07 20:16 | 36.75059 | 10.58063 | 2902 ft | 204 kts | 283° |
| 2026-05-07 20:16 | 36.75410 | 10.56337 | 2902 ft | 205 kts | 283° |
| 2026-05-07 20:16 | 36.75750 | 10.54682 | 2908 ft | 190 kts | 283° |
| 2026-05-07 20:17 | 36.76078 | 10.53107 | 2987 ft | 186 kts | 283° |
| 2026-05-07 20:17 | 36.76409 | 10.51550 | 3002 ft | 185 kts | 283° |
| 2026-05-07 20:17 | 36.76738 | 10.50000 | 3001 ft | 185 kts | 283° |
| 2026-05-07 20:17 | 36.77060 | 10.48454 | 3003 ft | 184 kts | 283° |
| 2026-05-07 20:18 | 36.77334 | 10.46902 | 3004 ft | 183 kts | 277° |
| 2026-05-07 20:18 | 36.77664 | 10.45368 | 3002 ft | 184 kts | 289° |
| 2026-05-07 20:18 | 36.78136 | 10.43879 | 3001 ft | 185 kts | 290° |
| 2026-05-07 20:18 | 36.78600 | 10.42385 | 2995 ft | 184 kts | 290° |
| 2026-05-07 20:19 | 36.79066 | 10.40927 | 2830 ft | 183 kts | 291° |
| 2026-05-07 20:19 | 36.79552 | 10.39458 | 2565 ft | 182 kts | 291° |
| 2026-05-07 20:19 | 36.80017 | 10.38056 | 2317 ft | 167 kts | 291° |
| 2026-05-07 20:19 | 36.80440 | 10.36782 | 2095 ft | 152 kts | 291° |
| 2026-05-07 20:20 | 36.80829 | 10.35607 | 1888 ft | 141 kts | 290° |
| 2026-05-07 20:20 | 36.81200 | 10.34494 | 1705 ft | 138 kts | 290° |
| 2026-05-07 20:20 | 36.81574 | 10.33397 | 1484 ft | 137 kts | 292° |
| 2026-05-07 20:20 | 36.81961 | 10.32316 | 1380 ft | 136 kts | 291° |
| 2026-05-07 20:21 | 36.82308 | 10.31225 | 1240 ft | 135 kts | 291° |
| 2026-05-07 20:21 | 36.82658 | 10.30145 | 1015 ft | 134 kts | 291° |
| 2026-05-07 20:21 | 36.83005 | 10.29076 | 859 ft | 132 kts | 294° |
| 2026-05-07 20:21 | 36.83369 | 10.28037 | 691 ft | 129 kts | 290° |
| 2026-05-07 20:22 | 36.83693 | 10.27008 | 494 ft | 125 kts | 294° |
| 2026-05-07 20:22 | 36.84027 | 10.26018 | 331 ft | 123 kts | 292° |
| 2026-05-07 20:22 | 36.84344 | 10.25030 | 155 ft | 122 kts | 293° |
| 2026-05-07 20:22 | 36.84661 | 10.24060 | 38 ft | 116 kts | 295° |
| 2026-05-07 20:23 | 36.84893 | 10.23373 | 32 ft | 46 kts | 293° |
| 2026-05-07 20:23 | 36.85000 | 10.23047 | 33 ft | 41 kts | 292° |
| 2026-05-07 20:23 | 36.85104 | 10.22715 | 39 ft | 41 kts | 290° |
| 2026-05-07 20:23 | 36.85157 | 10.22479 | 40 ft | 13 kts | 229° |
| 2026-05-07 20:24 | 36.85074 | 10.22420 | 36 ft | 16 kts | 207° |
| 2026-05-07 20:24 | 36.85047 | 10.22409 | 35 ft | 0 kts | 196° |
| 2026-05-07 20:24 | 36.85044 | 10.22408 | 35 ft | 3 kts | 196° |
| 2026-05-07 20:25 | 36.85005 | 10.22396 | 35 ft | 10 kts | 189° |
| 2026-05-07 20:25 | 36.84869 | 10.22360 | 34 ft | 27 kts | 193° |
| 2026-05-07 20:25 | 36.84671 | 10.22304 | 34 ft | 20 kts | 193° |
| 2026-05-07 20:25 | 36.84554 | 10.22272 | 33 ft | 16 kts | 192° |
| 2026-05-07 20:26 | 36.84466 | 10.22249 | 34 ft | 15 kts | 190° |
| 2026-05-07 20:26 | 36.84294 | 10.22204 | 34 ft | 36 kts | 191° |
| 2026-05-07 20:26 | 36.84003 | 10.22124 | 34 ft | 40 kts | 192° |
| 2026-05-07 20:26 | 36.83880 | 10.22042 | 34 ft | 17 kts | 264° |
| 2026-05-07 20:27 | 36.83901 | 10.21968 | 34 ft | 6 kts | 302° |
| 2026-05-07 20:27 | 36.83917 | 10.21876 | 34 ft | 12 kts | 314° |
| 2026-05-07 20:27 | 36.84006 | 10.21867 | 34 ft | 14 kts | 12° |
| 2026-05-07 20:27 | 36.84125 | 10.21899 | 34 ft | 22 kts | 12° |
| 2026-05-07 20:28 | 36.84286 | 10.21942 | 34 ft | 26 kts | 12° |
| 2026-05-07 20:28 | 36.84421 | 10.21961 | 34 ft | 15 kts | 356° |
| 2026-05-07 20:28 | 36.84498 | 10.21955 | 34 ft | 3 kts | 356° |
| 2026-05-07 20:28 | 36.84510 | 10.21954 | 34 ft | 2 kts | 356° |
| 2026-05-07 20:29 | 36.84522 | 10.21953 | 34 ft | 1 kts | 356° |
| 2026-05-07 20:29 | 36.84527 | 10.21952 | 34 ft | 0 kts | 356° |
| 2026-05-07 20:29 | 36.84528 | 10.21952 | 34 ft | 0 kts | 356° |
| 2026-05-07 20:29 | 36.84529 | 10.21952 | 34 ft | 0 kts | 356° |